createdAt,value
2022-08-03T00:02:28.014Z,100.00
2022-08-03T00:05:29.594Z,100.00
2022-08-03T00:08:31.260Z,100.00
2022-08-03T00:11:34.086Z,100.00
2022-08-03T00:14:35.766Z,100.00
2022-08-03T00:17:53.645Z,100.00
2022-08-03T00:20:55.792Z,100.00
2022-08-03T00:23:58.594Z,100.00
2022-08-03T00:27:00.119Z,100.00
2022-08-03T00:30:01.635Z,100.00
2022-08-03T00:33:03.812Z,100.00
2022-08-03T00:36:05.593Z,100.00
2022-08-03T00:39:07.146Z,100.00
2022-08-03T00:42:09.557Z,100.00
2022-08-03T00:45:11.167Z,100.00
2022-08-03T00:48:19.545Z,100.00
2022-08-03T00:51:34.542Z,100.00
2022-08-03T00:54:38.272Z,100.00
2022-08-03T00:57:39.974Z,100.00
2022-08-03T01:00:41.872Z,100.00
2022-08-03T01:03:43.419Z,100.00
2022-08-03T01:07:11.791Z,100.00
2022-08-03T01:10:26.112Z,100.00
2022-08-03T01:13:59.934Z,100.00
2022-08-03T01:16:59.849Z,100.00
2022-08-03T01:20:10.700Z,100.00
2022-08-03T01:23:18.355Z,100.00
2022-08-03T01:26:56.071Z,100.00
2022-08-03T01:30:07.609Z,100.00
2022-08-03T01:33:18.981Z,100.00
2022-08-03T01:36:28.757Z,100.00
2022-08-03T01:39:33.134Z,100.00
2022-08-03T01:42:36.573Z,100.00
2022-08-03T01:45:39.779Z,100.00
2022-08-03T01:48:43.359Z,100.00
2022-08-03T01:51:57.907Z,100.00
2022-08-03T01:55:07.670Z,100.00
2022-08-03T01:58:11.539Z,100.00
2022-08-03T02:01:18.856Z,100.00
2022-08-03T02:04:22.577Z,100.00
2022-08-03T02:07:27.220Z,100.00
2022-08-03T02:10:34.563Z,100.00
2022-08-03T02:13:42.103Z,100.00
2022-08-03T02:16:47.289Z,100.00
2022-08-03T02:20:01.939Z,100.00
2022-08-03T02:23:08.741Z,100.00
2022-08-03T02:26:17.581Z,100.00
2022-08-03T02:29:38.854Z,100.00
2022-08-03T02:32:50.055Z,100.00
2022-08-03T02:35:59.061Z,100.00
2022-08-03T02:39:03.643Z,100.00
2022-08-03T02:42:09.468Z,100.00
2022-08-03T02:56:11.718Z,100.00
2022-08-03T03:15:00.636Z,100.00
2022-08-03T03:19:19.138Z,100.00
2022-08-03T03:22:51.285Z,100.00
2022-08-03T03:26:00.731Z,100.00
2022-08-03T03:29:30.776Z,100.00
2022-08-03T03:40:32.509Z,100.00
2022-08-03T03:48:53.911Z,100.00
2022-08-03T04:16:56.151Z,100.00
2022-08-03T04:20:15.686Z,100.00
2022-08-03T04:23:53.483Z,100.00
2022-08-03T04:27:34.313Z,100.00
2022-08-03T04:30:49.186Z,100.00
2022-08-03T04:33:53.896Z,100.00
2022-08-03T04:37:00.408Z,100.00
2022-08-03T04:40:06.366Z,100.00
2022-08-03T04:43:22.115Z,100.00
2022-08-03T04:46:50.533Z,100.00
2022-08-03T04:49:55.885Z,100.00
2022-08-03T04:52:57.537Z,100.00
2022-08-03T04:56:06.078Z,100.00
2022-08-03T04:59:08.365Z,100.00
2022-08-03T05:02:10.027Z,100.00
2022-08-03T05:05:11.973Z,100.00
2022-08-03T05:08:14.265Z,100.00
2022-08-03T05:11:16.938Z,100.00
2022-08-03T05:14:18.581Z,100.00
2022-08-03T05:17:30.095Z,100.00
2022-08-03T05:20:32.267Z,100.00
2022-08-03T05:23:33.904Z,100.00
2022-08-03T05:26:35.536Z,100.00
2022-08-03T05:29:36.994Z,100.00
2022-08-03T05:32:38.505Z,100.00
2022-08-03T05:35:57.301Z,100.00
2022-08-03T05:39:02.968Z,100.00
2022-08-03T05:42:04.777Z,100.00
2022-08-03T05:45:15.581Z,100.00
2022-08-03T05:48:17.130Z,100.00
2022-08-03T05:51:19.020Z,100.00
2022-08-03T05:54:20.527Z,100.00
2022-08-03T05:57:22.165Z,100.00
2022-08-03T06:00:24.171Z,100.00
2022-08-03T06:03:27.323Z,100.00
2022-08-03T06:06:32.153Z,100.00
2022-08-03T06:10:34.866Z,100.00
2022-08-03T06:12:55.910Z,100.00
2022-08-03T06:15:57.722Z,100.00
2022-08-03T06:18:59.272Z,100.00
2022-08-03T06:22:00.921Z,100.00
2022-08-03T06:25:07.513Z,100.00
2022-08-03T06:28:35.288Z,100.00
2022-08-03T06:31:35.406Z,100.00
2022-08-03T06:34:36.857Z,100.00
2022-08-03T06:37:51.695Z,100.00
2022-08-03T06:40:53.159Z,100.00
2022-08-03T06:44:03.014Z,100.00
2022-08-03T06:47:05.893Z,100.00
2022-08-03T06:50:16.603Z,100.00
2022-08-03T06:53:21.321Z,100.00
2022-08-03T06:56:23.125Z,100.00
2022-08-03T07:00:09.904Z,100.00
2022-08-03T07:02:46.545Z,100.00
2022-08-03T07:05:49.158Z,100.00
2022-08-03T07:08:53.642Z,100.00
2022-08-03T07:11:57.160Z,100.00
2022-08-03T07:15:01.883Z,100.00
2022-08-03T07:18:04.361Z,100.00
2022-08-03T07:21:05.862Z,100.00
2022-08-03T07:24:07.422Z,100.00
2022-08-03T07:27:09.713Z,100.00
2022-08-03T07:30:11.725Z,100.00
2022-08-03T07:33:13.344Z,100.00
2022-08-03T07:36:14.840Z,100.00
2022-08-03T07:39:18.018Z,100.00
2022-08-03T07:42:20.398Z,100.00
2022-08-03T07:45:23.373Z,100.00
2022-08-03T07:48:24.953Z,100.00
2022-08-03T07:51:26.484Z,100.00
2022-08-03T07:54:27.946Z,100.00
2022-08-03T07:57:29.864Z,100.00
2022-08-03T08:00:32.066Z,100.00
2022-08-03T08:03:52.214Z,100.00
2022-08-03T08:06:54.575Z,100.00
2022-08-03T08:09:57.361Z,100.00
2022-08-03T08:12:59.122Z,100.00
2022-08-03T08:16:01.077Z,100.00
2022-08-03T08:19:02.602Z,100.00
2022-08-03T08:22:04.349Z,100.00
2022-08-03T08:25:07.436Z,100.00
2022-08-03T08:28:29.458Z,100.00
2022-08-03T08:31:30.472Z,100.00
2022-08-03T08:34:32.416Z,100.00
2022-08-03T08:37:34.255Z,100.00
2022-08-03T08:40:35.793Z,100.00
2022-08-03T08:43:37.407Z,97.87
2022-08-03T08:46:40.406Z,97.20
2022-08-03T08:49:58.211Z,100.00
2022-08-03T08:53:07.014Z,93.84
2022-08-03T08:56:16.825Z,99.73
2022-08-03T08:59:18.774Z,100.00
2022-08-03T09:02:20.542Z,100.00
2022-08-03T09:05:35.714Z,100.00
2022-08-03T09:08:37.783Z,100.00
2022-08-03T09:12:00.405Z,100.00
2022-08-03T09:15:31.263Z,92.65
2022-08-03T09:18:33.352Z,93.47
2022-08-03T09:21:35.119Z,95.80
2022-08-03T09:24:41.540Z,92.31
2022-08-03T09:27:44.741Z,85.85
2022-08-03T09:30:59.140Z,84.46
2022-08-03T09:34:02.493Z,86.08
2022-08-03T09:37:14.790Z,88.43
2022-08-03T09:40:34.351Z,81.88
2022-08-03T09:43:46.414Z,84.59
2022-08-03T09:46:52.122Z,86.06
2022-08-03T09:50:08.842Z,89.71
2022-08-03T09:53:12.203Z,81.36
2022-08-03T09:56:34.378Z,81.39
2022-08-03T09:59:35.349Z,79.59
2022-08-03T10:02:42.556Z,79.78
2022-08-03T10:05:45.251Z,81.39
2022-08-03T10:08:47.319Z,78.14
2022-08-03T10:11:49.390Z,86.25
2022-08-03T10:14:52.302Z,88.95
2022-08-03T10:17:53.803Z,75.41
2022-08-03T10:21:03.172Z,73.76
2022-08-03T10:24:07.389Z,72.79
2022-08-03T10:27:13.392Z,87.93
2022-08-03T10:30:15.617Z,76.08
2022-08-03T10:33:51.180Z,81.08
2022-08-03T10:36:44.158Z,73.50
2022-08-03T10:39:54.528Z,75.79
2022-08-03T10:43:03.410Z,77.21
2022-08-03T10:46:08.398Z,68.62
2022-08-03T10:49:13.745Z,70.13
2022-08-03T10:52:33.723Z,73.02
2022-08-03T10:56:00.133Z,66.00
2022-08-03T10:59:03.873Z,68.26
2022-08-03T11:02:08.265Z,68.84
2022-08-03T11:05:26.776Z,74.21
2022-08-03T11:08:34.766Z,61.50
2022-08-03T11:11:43.837Z,56.61
2022-08-03T11:14:48.105Z,54.36
2022-08-03T11:18:11.166Z,56.66
2022-08-03T11:21:12.980Z,63.94
2022-08-03T11:24:36.387Z,53.35
2022-08-03T11:27:38.849Z,55.57
2022-08-03T11:30:41.280Z,55.39
2022-08-03T11:34:02.652Z,55.38
2022-08-03T11:37:22.120Z,56.75
2022-08-03T11:40:44.518Z,51.46
2022-08-03T11:43:46.745Z,51.19
2022-08-03T11:46:48.530Z,53.82
2022-08-03T11:49:53.634Z,50.03
2022-08-03T11:52:55.149Z,45.69
2022-08-03T11:56:02.305Z,46.72
2022-08-03T11:59:20.382Z,51.00
2022-08-03T12:02:23.441Z,55.78
2022-08-03T12:05:51.054Z,48.69
2022-08-03T12:08:53.857Z,50.87
2022-08-03T12:12:00.214Z,63.61
2022-08-03T12:15:03.418Z,47.54
2022-08-03T12:18:15.471Z,48.38
2022-08-03T12:21:18.740Z,45.89
2022-08-03T12:24:20.212Z,46.39
2022-08-03T12:27:26.465Z,43.68
2022-08-03T12:30:28.361Z,44.94
2022-08-03T12:33:29.889Z,47.89
2022-08-03T12:36:34.268Z,45.42
2022-08-03T12:39:35.927Z,46.93
2022-08-03T12:42:57.481Z,45.12
2022-08-03T12:46:13.600Z,51.08
2022-08-03T12:49:17.101Z,42.48
2022-08-03T12:52:20.766Z,43.00
2022-08-03T12:55:22.980Z,43.13
2022-08-03T12:58:34.142Z,41.02
2022-08-03T13:01:37.415Z,41.91
2022-08-03T13:04:38.979Z,44.80
2022-08-03T13:07:46.074Z,42.65
2022-08-03T13:10:48.343Z,42.35
2022-08-03T13:13:51.443Z,43.56
2022-08-03T13:16:52.934Z,43.15
2022-08-03T13:19:54.713Z,46.04
2022-08-03T13:23:00.607Z,41.78
2022-08-03T13:26:02.493Z,41.53
2022-08-03T13:29:03.981Z,44.24
2022-08-03T13:32:06.185Z,43.19
2022-08-03T13:35:09.282Z,44.87
2022-08-03T13:38:10.915Z,41.14
2022-08-03T13:41:15.516Z,40.09
2022-08-03T13:44:29.341Z,42.97
2022-08-03T13:47:31.463Z,40.42
2022-08-03T13:50:33.233Z,42.80
2022-08-03T13:53:34.727Z,44.44
2022-08-03T13:56:36.206Z,45.67
2022-08-03T13:59:38.207Z,44.45
2022-08-03T14:02:39.755Z,47.79
2022-08-03T14:05:43.196Z,47.92
2022-08-03T14:08:45.213Z,49.55
2022-08-03T14:12:06.966Z,44.04
2022-08-03T14:15:10.057Z,42.75
2022-08-03T14:18:12.594Z,42.11
2022-08-03T14:21:14.622Z,42.83
2022-08-03T14:24:16.110Z,42.40
2022-08-03T14:27:17.610Z,39.51
2022-08-03T14:30:19.540Z,42.08
2022-08-03T14:33:21.219Z,41.97
2022-08-03T14:36:22.799Z,40.04
2022-08-03T14:39:24.468Z,39.92
2022-08-03T14:42:26.017Z,41.01
2022-08-03T14:45:27.565Z,42.49
2022-08-03T14:50:33.886Z,49.29
2022-08-03T14:51:51.634Z,43.77
2022-08-03T14:54:55.604Z,39.71
2022-08-03T14:57:57.047Z,39.27
2022-08-03T15:00:58.508Z,43.77
2022-08-03T15:04:00.041Z,40.05
2022-08-03T15:07:01.562Z,40.21
2022-08-03T15:10:03.327Z,37.00
2022-08-03T15:13:04.905Z,40.06
2022-08-03T15:16:06.446Z,43.00
2022-08-03T15:20:05.485Z,41.57
2022-08-03T15:22:34.622Z,41.33
2022-08-03T15:26:28.792Z,39.10
2022-08-03T15:28:58.451Z,37.25
2022-08-03T15:32:00.366Z,39.70
2022-08-03T15:35:01.923Z,38.39
2022-08-03T15:38:09.020Z,37.27
2022-08-03T15:41:13.746Z,36.55
2022-08-03T15:44:19.380Z,39.74
2022-08-03T15:47:21.156Z,37.70
2022-08-03T15:50:22.893Z,37.73
2022-08-03T15:53:24.416Z,35.82
2022-08-03T15:56:27.226Z,35.97
2022-08-03T15:59:28.944Z,36.46
2022-08-03T16:02:30.514Z,36.86
2022-08-03T16:05:32.259Z,35.89
2022-08-03T16:08:34.510Z,37.90
2022-08-03T16:11:35.990Z,36.22
2022-08-03T16:14:50.773Z,35.32
2022-08-03T16:17:53.776Z,37.27
2022-08-03T16:20:55.226Z,34.78
2022-08-03T16:23:57.403Z,36.48
2022-08-03T16:27:00.734Z,34.50
2022-08-03T16:30:03.096Z,34.14
2022-08-03T16:33:04.872Z,34.93
2022-08-03T16:36:06.586Z,35.49
2022-08-03T16:39:08.115Z,35.58
2022-08-03T16:42:09.658Z,34.60
2022-08-03T16:45:11.398Z,35.30
2022-08-03T16:48:12.910Z,36.46
2022-08-03T16:51:14.354Z,35.54
2022-08-03T16:54:15.907Z,35.40
2022-08-03T16:57:56.052Z,37.98
2022-08-03T17:00:42.947Z,35.66
2022-08-03T17:04:02.140Z,36.34
2022-08-03T17:07:06.865Z,37.21
2022-08-03T17:10:10.362Z,38.39
2022-08-03T17:13:13.066Z,38.72
2022-08-03T17:16:23.605Z,39.97
2022-08-03T17:19:26.317Z,39.80
2022-08-03T17:22:34.506Z,41.18
2022-08-03T17:26:01.797Z,42.71
2022-08-03T17:29:11.208Z,44.14
2022-08-03T17:32:21.114Z,43.36
2022-08-03T17:35:23.440Z,42.91
2022-08-03T17:38:26.060Z,44.37
2022-08-03T17:41:33.641Z,48.75
2022-08-03T17:44:46.027Z,49.24
2022-08-03T17:47:57.550Z,50.79
2022-08-03T17:51:06.537Z,49.49
2022-08-03T17:54:23.838Z,51.93
2022-08-03T17:58:02.497Z,53.16
2022-08-03T18:01:59.675Z,50.36
2022-08-03T18:04:45.067Z,53.02
2022-08-03T18:08:02.403Z,57.74
2022-08-03T18:11:14.504Z,57.38
2022-08-03T18:18:10.729Z,64.37
2022-08-03T18:21:17.068Z,69.19
2022-08-03T18:24:20.123Z,71.44
2022-08-03T18:27:45.634Z,71.27
2022-08-03T18:30:53.975Z,76.50
2022-08-03T18:34:18.285Z,77.85
2022-08-03T18:37:25.878Z,83.69
2022-08-03T18:40:30.858Z,85.19
2022-08-03T18:43:46.521Z,87.36
2022-08-03T18:46:49.196Z,91.53
2022-08-03T18:50:19.109Z,93.83
2022-08-03T18:53:23.602Z,95.75
2022-08-03T18:56:53.897Z,96.71
2022-08-03T19:00:10.541Z,100.00
2022-08-03T19:03:22.255Z,100.00
2022-08-03T19:06:27.639Z,100.00
2022-08-03T19:09:40.418Z,100.00
2022-08-03T19:12:50.654Z,100.00
2022-08-03T19:15:56.807Z,100.00
2022-08-03T19:19:00.689Z,100.00
2022-08-03T19:22:04.776Z,100.00
2022-08-03T19:25:12.090Z,100.00
2022-08-03T19:28:15.954Z,100.00
2022-08-03T19:31:20.549Z,100.00
2022-08-03T19:34:24.461Z,100.00
2022-08-03T19:37:38.723Z,100.00
2022-08-03T19:40:44.828Z,100.00
2022-08-03T19:43:58.233Z,100.00
2022-08-03T19:47:07.505Z,100.00
2022-08-03T19:50:13.846Z,100.00
2022-08-03T19:53:15.988Z,100.00
2022-08-03T19:56:23.645Z,100.00
2022-08-03T19:59:26.894Z,100.00
2022-08-03T20:02:29.858Z,100.00
2022-08-03T20:05:44.949Z,100.00
2022-08-03T20:08:53.658Z,100.00
2022-08-03T20:11:56.338Z,100.00
2022-08-03T20:14:59.230Z,100.00
2022-08-03T20:18:00.856Z,100.00
2022-08-03T20:21:06.402Z,100.00
2022-08-03T20:24:24.550Z,100.00
2022-08-03T20:27:30.043Z,100.00
2022-08-03T20:30:32.014Z,100.00
2022-08-03T20:33:46.212Z,100.00
2022-08-03T20:36:50.049Z,100.00
2022-08-03T20:39:51.660Z,100.00
2022-08-03T20:42:55.297Z,100.00
2022-08-03T20:46:00.321Z,100.00
2022-08-03T20:49:21.238Z,100.00
2022-08-03T20:52:26.171Z,100.00
2022-08-03T20:55:48.209Z,100.00
2022-08-03T20:58:50.985Z,100.00
2022-08-03T21:01:52.534Z,100.00
2022-08-03T21:04:56.504Z,100.00
2022-08-03T21:08:06.879Z,100.00
2022-08-03T21:11:18.542Z,100.00
2022-08-03T21:12:57.248Z,62.36
2022-08-03T21:14:27.719Z,100.00
2022-08-03T21:17:40.326Z,100.00
2022-08-03T21:20:43.591Z,100.00
2022-08-03T21:23:50.103Z,100.00
2022-08-03T21:26:53.877Z,100.00
2022-08-03T21:29:55.694Z,100.00
2022-08-03T21:32:58.702Z,100.00
2022-08-03T21:36:01.942Z,100.00
2022-08-03T21:39:08.337Z,100.00
2022-08-03T21:42:09.882Z,100.00
2022-08-03T21:45:17.095Z,100.00
2022-08-03T21:48:21.543Z,100.00
2022-08-03T21:51:26.095Z,100.00
2022-08-03T21:54:35.010Z,100.00
2022-08-03T21:57:39.742Z,100.00
2022-08-03T22:00:43.334Z,100.00
2022-08-03T22:03:53.058Z,100.00
2022-08-03T22:06:55.803Z,100.00
2022-08-03T22:09:59.138Z,100.00
2022-08-03T22:13:00.768Z,100.00
2022-08-03T22:16:02.566Z,100.00
2022-08-03T22:19:04.253Z,100.00
2022-08-03T22:22:09.203Z,100.00
2022-08-03T22:25:16.048Z,100.00
2022-08-03T22:28:19.004Z,100.00
2022-08-03T22:31:30.756Z,100.00
2022-08-03T22:34:45.429Z,100.00
2022-08-03T22:37:49.634Z,100.00
2022-08-03T22:40:52.533Z,100.00
2022-08-03T22:43:54.474Z,100.00
2022-08-03T22:46:56.780Z,100.00
2022-08-03T22:50:31.210Z,100.00
2022-08-03T22:53:21.795Z,100.00
2022-08-03T22:56:23.499Z,100.00
2022-08-03T22:59:40.544Z,100.00
2022-08-03T23:02:45.513Z,100.00
2022-08-03T23:06:02.232Z,100.00
2022-08-03T23:09:12.842Z,100.00
2022-08-03T23:12:20.217Z,100.00
2022-08-03T23:15:26.262Z,100.00
2022-08-03T23:18:34.117Z,100.00
2022-08-03T23:21:53.873Z,100.00
2022-08-03T23:25:03.619Z,100.00
2022-08-03T23:28:08.674Z,100.00
2022-08-03T23:31:10.845Z,100.00
2022-08-03T23:34:34.669Z,100.00
2022-08-03T23:38:03.992Z,100.00
2022-08-03T23:41:02.327Z,100.00
2022-08-03T23:44:04.495Z,100.00
2022-08-03T23:47:06.045Z,100.00
2022-08-03T23:50:07.966Z,100.00
2022-08-03T23:53:31.017Z,100.00
2022-08-03T23:57:04.638Z,100.00
